createdAt,value
2023-05-25T00:01:49.218Z,63.64
2023-05-25T00:04:19.529Z,63.38
2023-05-25T00:06:47.592Z,63.93
2023-05-25T00:09:15.454Z,64.96
2023-05-25T00:11:43.285Z,66.88
2023-05-25T00:14:10.833Z,64.84
2023-05-25T00:16:40.542Z,67.68
2023-05-25T00:19:10.652Z,65.70
2023-05-25T00:21:38.425Z,65.91
2023-05-25T00:24:06.139Z,65.93
2023-05-25T00:26:35.437Z,68.11
2023-05-25T00:29:03.978Z,66.64
2023-05-25T00:31:35.625Z,66.01
2023-05-25T00:34:03.439Z,64.79
2023-05-25T00:36:30.873Z,65.54
2023-05-25T00:38:58.299Z,65.22
2023-05-25T00:41:26.295Z,65.02
2023-05-25T00:43:53.676Z,64.91
2023-05-25T00:46:21.119Z,64.86
2023-05-25T00:48:48.805Z,66.33
2023-05-25T00:51:16.892Z,64.53
2023-05-25T00:53:44.293Z,63.79
2023-05-25T00:56:18.254Z,63.85
2023-05-25T00:58:45.717Z,63.96
2023-05-25T01:01:13.805Z,63.75
2023-05-25T01:03:43.060Z,63.20
2023-05-25T01:06:13.170Z,63.45
2023-05-25T01:08:42.292Z,63.48
2023-05-25T01:11:11.499Z,61.70
2023-05-25T01:13:38.929Z,62.88
2023-05-25T01:16:06.820Z,62.58
2023-05-25T01:18:34.276Z,62.33
2023-05-25T01:21:13.197Z,62.72
2023-05-25T01:23:45.066Z,63.11
2023-05-25T01:26:15.384Z,64.17
2023-05-25T01:28:46.579Z,64.00
2023-05-25T01:31:14.174Z,63.01
2023-05-25T01:33:43.108Z,63.33
2023-05-25T01:36:10.818Z,63.07
2023-05-25T01:38:39.034Z,62.97
2023-05-25T01:41:06.458Z,63.04
2023-05-25T01:43:34.175Z,62.87
2023-05-25T01:46:13.049Z,62.48
2023-05-25T01:48:47.158Z,63.54
2023-05-25T01:51:19.206Z,62.76
2023-05-25T01:53:50.820Z,62.45
2023-05-25T01:56:18.421Z,62.38
2023-05-25T01:58:47.055Z,63.14
2023-05-25T02:01:15.324Z,63.27
2023-05-25T02:03:43.070Z,63.91
2023-05-25T02:06:10.466Z,62.85
2023-05-25T02:08:37.871Z,63.69
2023-05-25T02:11:05.644Z,64.24
2023-05-25T02:13:33.022Z,64.79
2023-05-25T02:16:00.992Z,64.40
2023-05-25T02:18:29.153Z,63.04
2023-05-25T02:20:56.816Z,63.76
2023-05-25T02:23:24.697Z,63.63
2023-05-25T02:25:52.172Z,64.00
2023-05-25T02:28:20.047Z,64.35
2023-05-25T02:30:47.563Z,64.58
2023-05-25T02:33:15.010Z,62.71
2023-05-25T02:35:43.155Z,62.63
2023-05-25T02:38:11.065Z,62.63
2023-05-25T02:40:38.506Z,62.70
2023-05-25T02:43:06.190Z,62.65
2023-05-25T02:45:33.730Z,64.26
2023-05-25T02:48:01.252Z,64.54
2023-05-25T02:50:29.218Z,63.81
2023-05-25T02:52:56.858Z,64.06
2023-05-25T02:55:26.168Z,64.14
2023-05-25T02:57:54.177Z,64.21
2023-05-25T03:00:23.771Z,66.06
2023-05-25T03:02:51.384Z,65.73
2023-05-25T03:05:19.308Z,65.15
2023-05-25T03:07:47.904Z,63.81
2023-05-25T03:10:15.339Z,62.70
2023-05-25T03:12:43.038Z,63.03
2023-05-25T03:15:13.216Z,63.28
2023-05-25T03:17:40.945Z,64.35
2023-05-25T03:20:10.555Z,63.13
2023-05-25T03:22:39.535Z,62.45
2023-05-25T03:25:07.428Z,63.15
2023-05-25T03:27:35.121Z,62.90
2023-05-25T03:30:02.508Z,64.05
2023-05-25T03:32:30.653Z,63.38
2023-05-25T03:34:58.365Z,63.27
2023-05-25T03:37:26.134Z,63.12
2023-05-25T03:39:53.525Z,63.46
2023-05-25T03:42:21.155Z,62.76
2023-05-25T03:44:48.496Z,61.68
2023-05-25T03:47:16.199Z,61.36
2023-05-25T03:49:43.835Z,62.67
2023-05-25T03:52:11.193Z,63.20
2023-05-25T03:54:38.534Z,62.37
2023-05-25T03:57:06.210Z,62.26
2023-05-25T03:59:33.627Z,61.88
2023-05-25T04:02:00.990Z,63.25
2023-05-25T04:04:29.900Z,62.95
2023-05-25T04:06:57.292Z,62.31
2023-05-25T04:09:24.614Z,62.50
2023-05-25T04:11:52.302Z,62.58
2023-05-25T04:14:21.443Z,62.72
2023-05-25T04:16:49.351Z,60.67
2023-05-25T04:19:17.335Z,60.21
2023-05-25T04:21:44.684Z,60.38
2023-05-25T04:24:12.371Z,59.34
2023-05-25T04:26:41.459Z,58.80
2023-05-25T04:29:09.889Z,58.57
2023-05-25T04:31:40.301Z,57.56
2023-05-25T04:34:09.709Z,56.95
2023-05-25T04:36:38.917Z,55.65
2023-05-25T04:39:07.390Z,55.07
2023-05-25T04:41:36.026Z,56.24
2023-05-25T04:44:09.798Z,58.00
2023-05-25T04:46:39.188Z,56.72
2023-05-25T04:49:08.572Z,56.77
2023-05-25T04:51:37.215Z,56.04
2023-05-25T04:54:06.027Z,55.49
2023-05-25T04:56:33.678Z,56.65
2023-05-25T04:59:01.217Z,56.54
2023-05-25T05:01:29.449Z,57.39
2023-05-25T05:03:57.304Z,59.47
2023-05-25T05:06:25.772Z,56.94
2023-05-25T05:08:53.630Z,56.13
2023-05-25T05:11:22.103Z,56.42
2023-05-25T05:13:49.654Z,54.45
2023-05-25T05:16:17.513Z,51.30
2023-05-25T05:18:45.012Z,47.77
2023-05-25T05:21:12.515Z,45.26
2023-05-25T05:23:41.180Z,43.39
2023-05-25T05:26:11.415Z,41.16
2023-05-25T05:28:38.967Z,38.83
2023-05-25T05:31:07.644Z,37.62
2023-05-25T05:33:35.483Z,36.69
2023-05-25T05:36:04.730Z,35.33
2023-05-25T05:38:32.542Z,34.61
2023-05-25T05:41:00.086Z,34.80
2023-05-25T05:43:31.041Z,33.38
2023-05-25T05:45:58.829Z,32.42
2023-05-25T05:48:26.353Z,32.38
2023-05-25T05:50:53.801Z,30.89
2023-05-25T05:53:21.732Z,32.19
2023-05-25T05:55:52.379Z,32.65
2023-05-25T05:58:21.675Z,31.57
2023-05-25T06:00:49.701Z,31.06
2023-05-25T06:03:17.470Z,31.25
2023-05-25T06:05:45.172Z,31.77
2023-05-25T06:08:13.680Z,31.32
2023-05-25T06:10:44.295Z,29.04
2023-05-25T06:13:11.929Z,31.26
2023-05-25T06:15:39.520Z,30.24
2023-05-25T06:18:08.145Z,34.47
2023-05-25T06:20:36.185Z,31.20
2023-05-25T06:23:03.713Z,29.86
2023-05-25T06:25:31.390Z,29.37
2023-05-25T06:27:59.404Z,29.21
2023-05-25T06:30:26.809Z,27.75
2023-05-25T06:32:54.542Z,29.06
2023-05-25T06:35:21.972Z,31.91
2023-05-25T06:37:50.333Z,29.90
2023-05-25T06:40:18.735Z,29.86
2023-05-25T06:42:46.290Z,29.04
2023-05-25T06:45:24.390Z,28.14
2023-05-25T06:47:51.940Z,30.04
2023-05-25T06:50:20.318Z,28.82
2023-05-25T06:52:48.030Z,29.42
2023-05-25T06:55:15.442Z,30.08
2023-05-25T06:57:43.779Z,29.15
2023-05-25T07:00:12.249Z,27.29
2023-05-25T07:02:39.829Z,26.27
2023-05-25T07:05:07.850Z,26.08
2023-05-25T07:07:35.669Z,27.39
2023-05-25T07:10:03.966Z,28.10
2023-05-25T07:12:31.539Z,28.31
2023-05-25T07:14:59.240Z,29.59
2023-05-25T07:17:26.853Z,30.48
2023-05-25T07:19:54.561Z,28.56
2023-05-25T07:22:23.622Z,27.98
2023-05-25T07:24:51.069Z,28.98
2023-05-25T07:27:19.673Z,30.52
2023-05-25T07:29:47.370Z,29.27
2023-05-25T07:32:14.751Z,26.27
2023-05-25T07:34:42.183Z,26.63
2023-05-25T07:37:09.916Z,26.11
2023-05-25T07:39:37.354Z,25.16
2023-05-25T07:42:04.945Z,24.97
2023-05-25T07:44:33.042Z,26.58
2023-05-25T07:47:00.900Z,27.12
2023-05-25T07:49:28.486Z,31.04
2023-05-25T07:51:56.250Z,32.25
2023-05-25T07:54:24.187Z,30.67
2023-05-25T07:56:52.046Z,28.76
2023-05-25T07:59:20.393Z,29.97
2023-05-25T08:01:48.076Z,29.38
2023-05-25T08:04:19.084Z,28.36
2023-05-25T08:06:47.575Z,27.95
2023-05-25T08:09:15.807Z,26.33
2023-05-25T08:11:45.171Z,29.34
2023-05-25T08:14:12.536Z,29.70
2023-05-25T08:16:40.013Z,28.66
2023-05-25T08:19:07.956Z,29.97
2023-05-25T08:21:37.644Z,29.91
2023-05-25T08:24:06.053Z,30.87
2023-05-25T08:26:53.153Z,30.24
2023-05-25T08:29:22.218Z,29.38
2023-05-25T08:31:50.698Z,27.46
2023-05-25T08:34:18.157Z,26.02
2023-05-25T08:36:46.056Z,26.40
2023-05-25T08:39:13.898Z,25.95
2023-05-25T08:41:43.418Z,27.45
2023-05-25T08:44:11.405Z,26.68
2023-05-25T08:46:39.873Z,24.02
2023-05-25T08:49:14.604Z,24.64
2023-05-25T08:51:43.716Z,24.62
2023-05-25T08:54:12.825Z,24.09
2023-05-25T08:56:51.486Z,24.40
2023-05-25T08:59:36.448Z,22.65
2023-05-25T09:02:06.766Z,24.22
2023-05-25T09:04:36.558Z,25.90
2023-05-25T09:07:10.535Z,23.29
2023-05-25T09:09:39.600Z,24.70
2023-05-25T09:12:07.629Z,23.55
2023-05-25T09:14:38.215Z,22.02
2023-05-25T09:17:08.921Z,24.25
2023-05-25T09:19:37.230Z,23.59
2023-05-25T09:22:14.728Z,26.83
2023-05-25T09:24:44.700Z,29.03
2023-05-25T09:27:13.621Z,27.77
2023-05-25T09:29:41.014Z,29.25
2023-05-25T09:32:08.774Z,29.15
2023-05-25T09:34:36.240Z,27.22
2023-05-25T09:37:14.606Z,25.44
2023-05-25T09:39:43.328Z,29.15
2023-05-25T09:42:11.520Z,30.48
2023-05-25T09:44:39.672Z,30.29
2023-05-25T09:47:07.316Z,31.92
2023-05-25T09:49:34.935Z,34.47
2023-05-25T09:52:02.448Z,32.58
2023-05-25T09:54:30.174Z,29.11
2023-05-25T09:56:57.566Z,28.87
2023-05-25T09:59:25.335Z,26.58
2023-05-25T10:01:56.926Z,27.60
2023-05-25T10:04:25.151Z,28.22
2023-05-25T10:06:52.733Z,29.97
2023-05-25T10:09:20.450Z,25.86
2023-05-25T10:11:48.299Z,27.74
2023-05-25T10:14:19.641Z,29.81
2023-05-25T10:16:50.093Z,32.34
2023-05-25T10:19:22.008Z,31.98
2023-05-25T10:22:00.992Z,34.01
2023-05-25T10:24:34.988Z,36.03
2023-05-25T10:27:10.843Z,34.58
2023-05-25T10:29:42.630Z,35.99
2023-05-25T10:32:10.046Z,32.74
2023-05-25T10:34:37.530Z,32.23
2023-05-25T10:37:06.951Z,35.55
2023-05-25T10:39:37.029Z,37.14
2023-05-25T10:42:04.917Z,37.29
2023-05-25T10:44:32.345Z,36.12
2023-05-25T10:46:59.812Z,36.00
2023-05-25T10:49:34.332Z,37.16
2023-05-25T10:52:02.410Z,37.32
2023-05-25T10:54:33.555Z,36.80
2023-05-25T10:57:14.282Z,38.19
2023-05-25T10:59:45.153Z,38.91
2023-05-25T11:02:12.717Z,35.50
2023-05-25T11:04:40.407Z,38.93
2023-05-25T11:07:13.302Z,39.00
2023-05-25T11:09:43.437Z,39.13
2023-05-25T11:12:21.528Z,39.54
2023-05-25T11:15:16.865Z,39.93
2023-05-25T11:17:46.074Z,39.36
2023-05-25T11:20:27.737Z,40.18
2023-05-25T11:22:57.214Z,39.40
2023-05-25T11:25:40.477Z,39.66
2023-05-25T11:28:08.878Z,39.68
2023-05-25T11:30:36.737Z,39.99
2023-05-25T11:33:04.539Z,42.01
2023-05-25T11:35:33.885Z,40.73
2023-05-25T11:38:01.334Z,41.24
2023-05-25T11:40:31.661Z,41.73
2023-05-25T11:43:00.822Z,40.93
2023-05-25T11:45:33.463Z,41.28
2023-05-25T11:48:01.290Z,41.26
2023-05-25T11:50:28.744Z,42.26
2023-05-25T11:52:56.260Z,41.92
2023-05-25T11:55:23.916Z,40.96
2023-05-25T11:57:57.762Z,43.08
2023-05-25T12:00:27.082Z,43.50
2023-05-25T12:02:54.947Z,42.19
2023-05-25T12:05:23.433Z,42.15
2023-05-25T12:07:51.410Z,40.99
2023-05-25T12:10:19.255Z,40.38
2023-05-25T12:12:50.812Z,40.76
2023-05-25T12:15:22.282Z,40.50
2023-05-25T12:17:50.464Z,40.84
2023-05-25T12:20:18.005Z,41.62
2023-05-25T12:22:45.845Z,41.08
2023-05-25T12:25:14.153Z,40.23
2023-05-25T12:27:41.887Z,41.75
2023-05-25T12:30:10.539Z,41.58
2023-05-25T12:33:02.937Z,40.42
2023-05-25T12:35:44.127Z,41.06
2023-05-25T12:38:15.497Z,41.01
2023-05-25T12:40:43.198Z,40.31
2023-05-25T12:43:12.103Z,39.76
2023-05-25T12:45:41.534Z,38.43
2023-05-25T12:48:09.120Z,39.04
2023-05-25T12:50:37.211Z,40.46
2023-05-25T12:53:05.229Z,40.17
2023-05-25T12:55:33.444Z,39.81
2023-05-25T12:58:07.263Z,43.15
2023-05-25T13:00:35.602Z,41.96
2023-05-25T13:03:03.478Z,43.06
2023-05-25T13:05:32.998Z,41.49
2023-05-25T13:08:01.711Z,41.00
2023-05-25T13:10:29.666Z,40.92
2023-05-25T13:12:58.543Z,41.02
2023-05-25T13:15:26.884Z,40.04
2023-05-25T13:17:54.931Z,39.84
2023-05-25T13:20:23.613Z,38.91
2023-05-25T13:22:52.429Z,41.09
2023-05-25T13:25:22.007Z,41.80
2023-05-25T13:27:50.288Z,41.39
2023-05-25T13:30:18.175Z,41.53
2023-05-25T13:32:46.178Z,41.50
2023-05-25T13:35:33.458Z,42.24
2023-05-25T13:38:01.154Z,42.88
2023-05-25T13:40:28.566Z,42.35
2023-05-25T13:42:56.322Z,41.92
2023-05-25T13:45:24.075Z,40.75
2023-05-25T13:47:51.644Z,42.08
2023-05-25T13:50:19.911Z,42.04
2023-05-25T13:52:49.217Z,41.47
2023-05-25T13:55:16.622Z,40.31
2023-05-25T13:57:44.009Z,41.12
2023-05-25T14:00:12.161Z,42.34
2023-05-25T14:02:39.981Z,42.62
2023-05-25T14:05:07.661Z,43.22
2023-05-25T14:07:35.096Z,42.43
2023-05-25T14:10:02.807Z,41.56
2023-05-25T14:12:30.411Z,41.44
2023-05-25T14:14:57.851Z,41.86
2023-05-25T14:17:25.674Z,42.33
2023-05-25T14:19:53.115Z,42.56
2023-05-25T14:22:20.596Z,42.06
2023-05-25T14:24:48.370Z,43.13
2023-05-25T14:27:20.857Z,42.41
2023-05-25T14:29:48.974Z,42.47
2023-05-25T14:32:17.147Z,43.55
2023-05-25T14:34:44.602Z,44.36
2023-05-25T14:37:12.251Z,43.31
2023-05-25T14:39:39.661Z,42.14
2023-05-25T14:42:07.300Z,42.63
2023-05-25T14:44:34.985Z,43.23
2023-05-25T14:47:02.835Z,42.51
2023-05-25T14:49:30.446Z,42.91
2023-05-25T14:51:58.139Z,43.56
2023-05-25T14:54:25.662Z,42.59
2023-05-25T14:56:53.085Z,44.12
2023-05-25T14:59:20.763Z,44.52
2023-05-25T15:01:48.177Z,45.65
2023-05-25T15:04:15.660Z,44.61
2023-05-25T15:06:43.352Z,43.58
2023-05-25T15:09:12.750Z,43.66
2023-05-25T15:11:40.164Z,44.96
2023-05-25T15:14:07.925Z,44.92
2023-05-25T15:16:35.672Z,45.79
2023-05-25T15:19:03.134Z,46.74
2023-05-25T15:21:30.811Z,46.74
2023-05-25T15:23:58.237Z,45.53
2023-05-25T15:26:26.374Z,44.58
2023-05-25T15:28:54.146Z,45.09
2023-05-25T15:31:21.572Z,45.62
2023-05-25T15:33:56.600Z,44.96
2023-05-25T15:36:25.759Z,46.23
2023-05-25T15:38:53.185Z,44.98
2023-05-25T15:41:20.957Z,45.33
2023-05-25T15:43:57.909Z,45.60
2023-05-25T15:46:25.944Z,44.84
2023-05-25T15:48:54.069Z,44.46
2023-05-25T15:51:21.594Z,45.35
2023-05-25T15:53:49.034Z,46.32
2023-05-25T15:56:16.857Z,46.82
2023-05-25T15:58:48.775Z,47.29
2023-05-25T16:01:16.232Z,46.89
2023-05-25T16:03:44.719Z,47.09
2023-05-25T16:06:12.282Z,46.46
2023-05-25T16:08:39.649Z,46.89
2023-05-25T16:11:07.333Z,47.13
2023-05-25T16:13:34.711Z,47.00
2023-05-25T16:16:02.218Z,46.91
2023-05-25T16:18:29.968Z,47.20
2023-05-25T16:20:58.009Z,48.29
2023-05-25T16:23:25.595Z,47.06
2023-05-25T16:25:53.368Z,48.43
2023-05-25T16:28:20.771Z,48.33
2023-05-25T16:30:48.264Z,47.13
2023-05-25T16:33:16.033Z,47.68
2023-05-25T16:35:43.835Z,47.78
2023-05-25T16:38:11.467Z,47.74
2023-05-25T16:40:39.123Z,48.34
2023-05-25T16:43:06.654Z,48.22
2023-05-25T16:45:34.248Z,48.96
2023-05-25T16:48:01.968Z,49.62
2023-05-25T16:50:29.433Z,48.84
2023-05-25T16:52:57.138Z,50.11
2023-05-25T16:55:27.278Z,49.02
2023-05-25T16:57:54.725Z,49.30
2023-05-25T17:00:22.528Z,48.87
2023-05-25T17:02:50.247Z,49.15
2023-05-25T17:05:17.726Z,48.17
2023-05-25T17:07:45.145Z,49.62
2023-05-25T17:10:12.801Z,49.23
2023-05-25T17:12:40.192Z,49.43
2023-05-25T17:15:08.189Z,50.97
2023-05-25T17:17:35.893Z,51.16
2023-05-25T17:20:04.117Z,50.21
2023-05-25T17:22:31.757Z,50.88
2023-05-25T17:24:59.656Z,51.06
2023-05-25T17:27:27.038Z,51.50
2023-05-25T17:29:54.484Z,51.03
2023-05-25T17:32:22.167Z,51.89
2023-05-25T17:34:49.564Z,52.67
2023-05-25T17:37:18.077Z,53.70
2023-05-25T17:39:46.685Z,53.30
2023-05-25T17:42:14.053Z,53.18
2023-05-25T17:44:42.488Z,52.57
2023-05-25T17:47:11.368Z,53.63
2023-05-25T17:49:38.965Z,54.05
2023-05-25T17:52:07.536Z,54.14
2023-05-25T17:54:35.557Z,54.82
2023-05-25T17:57:03.075Z,54.66
2023-05-25T17:59:30.565Z,53.36
2023-05-25T18:01:58.224Z,53.06
2023-05-25T18:04:25.936Z,52.25
2023-05-25T18:06:53.285Z,52.94
2023-05-25T18:09:20.815Z,52.08
2023-05-25T18:11:48.540Z,53.51
2023-05-25T18:14:16.028Z,53.20
2023-05-25T18:16:44.731Z,52.90
2023-05-25T18:19:14.707Z,54.53
2023-05-25T18:21:42.271Z,54.46
2023-05-25T18:24:10.412Z,52.68
2023-05-25T18:26:38.121Z,53.58
2023-05-25T18:29:06.008Z,54.55
2023-05-25T18:31:33.976Z,54.65
2023-05-25T18:34:01.843Z,55.22
2023-05-25T18:36:29.334Z,54.22
2023-05-25T18:38:56.761Z,56.39
2023-05-25T18:41:26.894Z,54.46
2023-05-25T18:43:54.638Z,55.86
2023-05-25T18:46:22.552Z,54.32
2023-05-25T18:48:50.229Z,54.34
2023-05-25T18:51:17.658Z,54.80
2023-05-25T18:53:45.125Z,56.37
2023-05-25T18:56:12.820Z,55.37
2023-05-25T18:58:40.195Z,57.44
2023-05-25T19:01:07.597Z,54.72
2023-05-25T19:03:35.530Z,55.48
2023-05-25T19:06:02.965Z,56.69
2023-05-25T19:08:30.414Z,56.65
2023-05-25T19:10:58.034Z,57.41
2023-05-25T19:13:25.454Z,60.10
2023-05-25T19:15:52.892Z,57.80
2023-05-25T19:18:20.629Z,56.39
2023-05-25T19:20:48.304Z,57.67
2023-05-25T19:23:16.080Z,58.34
2023-05-25T19:25:43.933Z,57.29
2023-05-25T19:28:11.537Z,59.13
2023-05-25T19:30:39.625Z,59.09
2023-05-25T19:33:07.357Z,58.71
2023-05-25T19:35:34.832Z,60.71
2023-05-25T19:38:02.441Z,60.86
2023-05-25T19:40:30.907Z,60.39
2023-05-25T19:42:58.317Z,59.37
2023-05-25T19:45:25.832Z,60.45
2023-05-25T19:47:53.842Z,60.23
2023-05-25T19:50:21.463Z,58.84
2023-05-25T19:52:48.887Z,59.07
2023-05-25T19:55:16.548Z,60.98
2023-05-25T19:57:43.974Z,62.55
2023-05-25T20:00:21.258Z,61.16
2023-05-25T20:02:54.122Z,60.40
2023-05-25T20:05:21.627Z,60.40
2023-05-25T20:07:50.863Z,59.89
2023-05-25T20:10:18.568Z,59.40
2023-05-25T20:12:45.978Z,59.81
2023-05-25T20:15:13.337Z,60.35
2023-05-25T20:17:41.118Z,59.11
2023-05-25T20:20:08.700Z,59.52
2023-05-25T20:22:36.179Z,61.56
2023-05-25T20:25:04.021Z,62.58
2023-05-25T20:27:31.387Z,60.48
2023-05-25T20:29:58.838Z,61.49
2023-05-25T20:32:26.578Z,60.86
2023-05-25T20:34:54.161Z,61.50
2023-05-25T20:37:21.558Z,62.09
2023-05-25T20:39:49.239Z,62.13
2023-05-25T20:42:16.626Z,61.90
2023-05-25T20:44:43.990Z,61.48
2023-05-25T20:47:11.610Z,63.52
2023-05-25T20:49:39.019Z,62.54
2023-05-25T20:52:06.523Z,62.85
2023-05-25T20:54:34.183Z,61.48
2023-05-25T20:57:03.946Z,62.71
2023-05-25T20:59:32.003Z,60.80
2023-05-25T21:01:59.851Z,62.63
2023-05-25T21:04:28.130Z,61.05
2023-05-25T21:06:56.686Z,61.40
2023-05-25T21:09:24.352Z,62.15
2023-05-25T21:11:51.742Z,61.50
2023-05-25T21:14:19.200Z,61.73
2023-05-25T21:16:46.888Z,61.78
2023-05-25T21:19:14.325Z,62.03
2023-05-25T21:21:41.736Z,61.51
2023-05-25T21:24:09.412Z,62.85
2023-05-25T21:26:36.886Z,61.90
2023-05-25T21:29:04.298Z,62.12
2023-05-25T21:31:32.014Z,61.29
2023-05-25T21:34:00.388Z,61.34
2023-05-25T21:36:28.108Z,61.79
2023-05-25T21:38:55.802Z,62.66
2023-05-25T21:41:23.447Z,61.29
2023-05-25T21:43:50.866Z,60.31
2023-05-25T21:46:18.496Z,61.61
2023-05-25T21:48:45.932Z,62.01
2023-05-25T21:51:13.348Z,61.47
2023-05-25T21:53:41.070Z,62.56
2023-05-25T21:56:08.466Z,63.57
2023-05-25T21:58:35.864Z,63.39
2023-05-25T22:01:03.603Z,62.08
2023-05-25T22:03:31.327Z,61.02
2023-05-25T22:05:58.781Z,60.32
2023-05-25T22:08:26.173Z,62.81
2023-05-25T22:10:53.842Z,62.60
2023-05-25T22:13:21.315Z,62.85
2023-05-25T22:15:48.679Z,61.12
2023-05-25T22:18:16.325Z,62.03
2023-05-25T22:20:43.806Z,61.80
2023-05-25T22:23:11.581Z,60.92
2023-05-25T22:25:39.332Z,60.67
2023-05-25T22:28:06.740Z,61.77
2023-05-25T22:30:34.226Z,60.51
2023-05-25T22:33:02.031Z,63.39
2023-05-25T22:35:29.528Z,63.01
2023-05-25T22:37:57.021Z,61.74
2023-05-25T22:40:24.768Z,61.08
2023-05-25T22:42:52.198Z,63.79
2023-05-25T22:45:20.408Z,64.64
2023-05-25T22:47:48.319Z,63.93
2023-05-25T22:50:15.802Z,64.63
2023-05-25T22:52:43.220Z,63.64
2023-05-25T22:55:11.065Z,62.85
2023-05-25T22:57:39.274Z,63.97
2023-05-25T23:00:07.204Z,63.30
2023-05-25T23:02:35.075Z,63.53
2023-05-25T23:05:02.788Z,63.64
2023-05-25T23:07:30.229Z,63.26
2023-05-25T23:09:57.920Z,61.95
2023-05-25T23:12:25.322Z,61.98
2023-05-25T23:14:53.493Z,62.98
2023-05-25T23:17:21.583Z,64.22
2023-05-25T23:19:48.964Z,62.95
2023-05-25T23:22:16.337Z,62.09
2023-05-25T23:24:43.987Z,61.28
2023-05-25T23:27:11.367Z,60.98
2023-05-25T23:29:38.738Z,60.00
2023-05-25T23:32:06.872Z,63.12
2023-05-25T23:34:34.288Z,61.67
2023-05-25T23:37:03.336Z,63.87
2023-05-25T23:39:32.713Z,63.67
2023-05-25T23:42:00.340Z,61.38
2023-05-25T23:44:27.884Z,63.00
2023-05-25T23:46:55.547Z,62.54
2023-05-25T23:49:23.006Z,63.55
2023-05-25T23:51:50.392Z,63.32
2023-05-25T23:54:18.065Z,62.10
2023-05-25T23:56:45.439Z,63.70
2023-05-25T23:59:15.102Z,63.47
